Time;durP1;ratioP1;P1;durP2;ratioP2;P2;SDS_P1;SDS_P2;PMS_P1;PMS_P2;Temp;Humidity;BMP_temperature;BMP_pressure;BME280_temperature;BME280_humidity;BME280_pressure;Samples;Min_cycle;Max_cycle;Signal;HPM_P1;HPM_P2
2022/10/28 00:01:03;;;;;;;7.40;3.03;;;;;;;10.41;63.30;93976.22;2051431;70;20152;-75
2022/10/28 00:03:29;;;;;;;10.25;3.45;;;;;;;10.31;64.34;93980.25;2050902;70;20157;-76
2022/10/28 00:06:04;;;;;;;9.82;3.42;;;;;;;10.28;63.73;93982.16;2051207;70;20135;-76
2022/10/28 00:08:30;;;;;;;8.32;3.30;;;;;;;10.28;63.68;93973.72;2050537;70;20232;-76
2022/10/28 00:11:10;;;;;;;8.45;2.55;;;;;;;10.29;63.98;93966.78;2051224;70;20142;-76
2022/10/28 00:13:37;;;;;;;7.28;2.78;;;;;;;10.39;63.52;93973.22;2051259;70;20138;-76
2022/10/28 00:16:04;;;;;;;6.22;2.50;;;;;;;10.33;64.30;93966.38;2051135;70;20664;-76
2022/10/28 00:18:30;;;;;;;8.23;2.80;;;;;;;10.39;64.75;93955.59;2051424;70;20138;-76
2022/10/28 00:21:01;;;;;;;9.10;2.70;;;;;;;10.45;64.16;93952.53;2051075;70;20522;-77
2022/10/28 00:23:27;;;;;;;6.97;2.85;;;;;;;10.39;63.93;93952.78;2052379;70;20371;-76
2022/10/28 00:25:53;;;;;;;7.13;2.78;;;;;;;10.40;63.71;93960.66;2053141;70;20145;-76
2022/10/28 00:28:19;;;;;;;7.57;2.78;;;;;;;10.40;63.42;93957.84;2051902;70;20526;-77
2022/10/28 00:30:48;;;;;;;9.15;2.83;;;;;;;10.37;64.04;93953.38;2050851;70;20161;-77
2022/10/28 00:33:14;;;;;;;13.60;2.85;;;;;;;10.40;63.71;93951.44;2051654;70;20181;-77
2022/10/28 00:35:39;;;;;;;12.48;2.85;;;;;;;10.43;63.39;93948.22;2051094;70;20177;-77
2022/10/28 00:38:06;;;;;;;6.55;2.78;;;;;;;10.52;62.81;93952.44;2050690;70;20157;-77
2022/10/28 00:40:37;;;;;;;8.73;2.78;;;;;;;10.37;64.21;93944.91;2050846;70;20534;-77
2022/10/28 00:43:02;;;;;;;11.00;3.10;;;;;;;10.37;63.14;93952.63;2047706;70;20233;-77
2022/10/28 00:45:28;;;;;;;10.05;3.10;;;;;;;10.31;64.24;93950.06;2050990;70;20176;-77
2022/10/28 00:47:56;;;;;;;8.57;2.55;;;;;;;10.29;64.84;93949.13;2050589;70;20154;-77
2022/10/28 00:50:34;;;;;;;7.88;2.40;;;;;;;10.15;65.88;93957.13;2050905;70;20636;-77
2022/10/28 00:53:06;;;;;;;10.25;2.78;;;;;;;10.19;64.92;93949.78;2051048;70;20166;-76
2022/10/28 00:55:33;;;;;;;6.72;2.80;;;;;;;10.32;63.89;93942.34;2050384;70;20174;-77
2022/10/28 00:58:01;;;;;;;8.73;3.13;;;;;;;10.20;64.51;93953.31;2050474;70;20169;-77
2022/10/28 01:00:26;;;;;;;11.10;2.83;;;;;;;10.19;64.28;93951.84;2051070;70;20251;-77
2022/10/28 01:02:52;;;;;;;10.00;3.17;;;;;;;10.16;64.25;93948.09;2051281;70;20150;-76
2022/10/28 01:05:25;;;;;;;8.13;2.95;;;;;;;10.17;64.13;93949.63;2051470;70;20162;-77
2022/10/28 01:07:56;;;;;;;11.82;3.05;;;;;;;10.13;64.80;93943.66;2051368;69;20171;-76
2022/10/28 01:10:37;;;;;;;11.38;3.33;;;;;;;10.18;65.53;93939.84;2051541;69;20138;-77
2022/10/28 01:13:17;;;;;;;6.80;2.72;;;;;;;10.22;63.88;93933.81;2051465;69;20151;-76
2022/10/28 01:16:24;;;;;;;11.38;3.20;;;;;;;10.17;65.01;93929.91;2054430;69;20153;-76
2022/10/28 01:19:03;;;;;;;8.57;2.60;;;;;;;9.99;66.11;93936.84;2053611;70;20608;-76
2022/10/28 01:21:48;;;;;;;7.57;3.00;;;;;;;10.14;65.74;93938.75;2054929;69;20593;-76
2022/10/28 01:24:28;;;;;;;7.85;2.60;;;;;;;10.10;65.38;93930.72;2054972;69;20626;-76
2022/10/28 01:27:13;;;;;;;7.53;2.65;;;;;;;10.14;64.78;93933.88;2055273;69;20146;-77
2022/10/28 01:29:47;;;;;;;12.70;3.30;;;;;;;10.17;64.24;93931.97;2055437;69;20632;-77
2022/10/28 01:32:30;;;;;;;6.20;3.10;;;;;;;9.97;65.42;93942.31;2054824;69;20174;-78
2022/10/28 01:35:25;;;;;;;11.45;2.85;;;;;;;10.05;64.63;93936.59;2055354;69;21009;-76
2022/10/28 01:38:25;;;;;;;6.60;2.42;;;;;;;10.06;65.14;93940.91;2055359;69;20149;-76
2022/10/28 01:41:13;;;;;;;8.05;2.20;;;;;;;10.05;65.41;93930.97;2054790;69;20164;-75
2022/10/28 01:44:06;;;;;;;11.65;3.30;;;;;;;10.09;65.04;93936.94;2055270;69;20142;-76
2022/10/28 01:46:47;;;;;;;5.45;2.70;;;;;;;10.10;64.71;93930.72;2054997;69;20154;-76
2022/10/28 01:49:19;;;;;;;8.65;2.75;;;;;;;9.72;68.58;93930.38;2055235;69;20138;-76
2022/10/28 01:51:49;;;;;;;9.27;3.33;;;;;;;9.83;65.87;93935.50;2054812;69;20138;-75
2022/10/28 01:54:21;;;;;;;11.07;3.13;;;;;;;9.93;65.53;93925.09;2055230;69;20230;-76
2022/10/28 01:56:48;;;;;;;10.20;2.90;;;;;;;9.96;64.84;93935.19;2055206;69;20154;-76
2022/10/28 01:59:19;;;;;;;10.13;3.05;;;;;;;9.95;64.90;93933.72;2055197;69;20241;-76
2022/10/28 02:01:45;;;;;;;8.68;2.70;;;;;;;10.02;63.96;93934.94;2055151;69;20185;-76
2022/10/28 02:04:11;;;;;;;12.70;3.35;;;;;;;9.99;65.81;93933.28;2055242;69;20161;-77
2022/10/28 02:06:39;;;;;;;14.15;3.25;;;;;;;10.01;65.04;93927.84;2055102;69;20606;-76
2022/10/28 02:09:13;;;;;;;11.02;2.70;;;;;;;10.01;65.61;93933.47;2056953;69;20142;-75
2022/10/28 02:12:00;;;;;;;12.60;2.80;;;;;;;9.89;66.76;93933.94;2057290;69;20138;-76
2022/10/28 02:14:57;;;;;;;10.00;2.67;;;;;;;9.95;65.44;93924.53;2055241;69;20140;-77
2022/10/28 02:17:36;;;;;;;11.43;2.50;;;;;;;9.93;65.41;93923.00;2055239;69;20180;-77
2022/10/28 02:20:24;;;;;;;8.95;2.70;;;;;;;9.87;65.58;93927.41;2055199;69;20137;-76
2022/10/28 02:23:19;;;;;;;9.15;2.90;;;;;;;9.88;64.74;93923.25;2055138;69;20184;-76
2022/10/28 02:25:58;;;;;;;14.20;2.95;;;;;;;9.82;66.00;93917.88;2055300;69;20217;-76
2022/10/28 02:28:45;;;;;;;7.03;2.40;;;;;;;9.77;66.01;93918.13;2054616;69;20180;-76
2022/10/28 02:31:26;;;;;;;9.55;2.95;;;;;;;9.87;65.24;93914.09;2055039;69;20229;-76
2022/10/28 02:33:58;;;;;;;10.48;2.85;;;;;;;9.60;68.47;93913.22;2054578;69;20150;-76
2022/10/28 02:36:26;;;;;;;11.80;3.03;;;;;;;9.75;66.22;93918.69;2055144;69;20224;-76
2022/10/28 02:38:55;;;;;;;9.27;2.72;;;;;;;9.79;65.61;93921.09;2055145;69;20158;-76
2022/10/28 02:42:00;;;;;;;5.47;2.33;;;;;;;9.83;65.61;93922.19;2055093;69;20152;-76
2022/10/28 02:44:31;;;;;;;8.57;2.20;;;;;;;9.82;65.97;93917.88;2055232;70;20229;-75
2022/10/28 02:47:00;;;;;;;8.00;2.40;;;;;;;9.81;65.19;93927.66;2055146;69;20153;-76
2022/10/28 02:49:30;;;;;;;8.82;2.70;;;;;;;9.79;64.97;93926.72;2054565;69;20150;-76
2022/10/28 02:52:03;;;;;;;7.97;2.40;;;;;;;9.84;65.20;93918.03;2054563;69;20142;-76
2022/10/28 02:54:36;;;;;;;10.88;2.20;;;;;;;9.83;65.11;93921.44;2055096;69;20471;-76
2022/10/28 02:57:05;;;;;;;5.78;2.15;;;;;;;9.77;65.14;93915.31;2055254;69;20184;-77
2022/10/28 02:59:30;;;;;;;6.45;2.70;;;;;;;9.79;65.09;93919.03;2054980;69;20161;-76
2022/10/28 03:01:57;;;;;;;5.03;1.88;;;;;;;9.68;66.43;93922.34;2055085;69;20150;-76
2022/10/28 03:04:23;;;;;;;11.25;2.10;;;;;;;9.72;65.89;93924.75;2054539;69;20154;-76
2022/10/28 03:06:48;;;;;;;6.00;2.00;;;;;;;9.75;65.63;93923.56;2055001;69;20181;-76
2022/10/28 03:09:14;;;;;;;8.82;2.80;;;;;;;9.75;65.69;93921.50;2055229;69;20149;-76
2022/10/28 03:11:39;;;;;;;7.80;1.92;;;;;;;9.75;64.78;93917.94;2054464;69;20154;-76
2022/10/28 03:14:05;;;;;;;12.32;2.33;;;;;;;9.72;65.26;93925.50;2055024;69;20130;-76
2022/10/28 03:16:30;;;;;;;8.98;1.98;;;;;;;9.72;65.90;93919.88;2055054;69;20149;-75
2022/10/28 03:18:56;;;;;;;5.72;1.77;;;;;;;9.75;66.02;93918.69;2055157;69;20220;-75
2022/10/28 03:21:22;;;;;;;5.80;1.98;;;;;;;9.76;66.53;93923.03;2055172;69;20138;-76
2022/10/28 03:23:47;;;;;;;5.05;1.98;;;;;;;9.79;66.17;93918.28;2055150;69;20149;-77
2022/10/28 03:26:13;;;;;;;7.43;2.10;;;;;;;9.73;65.62;93920.59;2055001;69;20661;-77
2022/10/28 03:28:39;;;;;;;8.73;2.47;;;;;;;9.75;66.40;93921.50;2055140;69;20150;-76
2022/10/28 03:31:05;;;;;;;5.18;2.25;;;;;;;9.80;64.34;93922.59;2054389;69;20149;-77
2022/10/28 03:33:30;;;;;;;5.20;2.17;;;;;;;9.70;65.73;93922.50;2055004;69;20509;-76
2022/10/28 03:35:56;;;;;;;8.07;2.58;;;;;;;9.61;66.39;93923.13;2054501;69;20241;-76
2022/10/28 03:38:22;;;;;;;6.70;2.40;;;;;;;9.64;65.81;93922.00;2054996;69;20138;-76
2022/10/28 03:40:48;;;;;;;4.47;2.05;;;;;;;9.68;65.68;93920.25;2054980;69;20203;-76
2022/10/28 03:43:14;;;;;;;10.82;3.88;;;;;;;9.64;65.45;93924.81;2055050;69;20233;-78
2022/10/28 03:45:40;;;;;;;8.88;3.50;;;;;;;9.73;64.70;93917.78;2054903;69;20146;-75
2022/10/28 03:48:06;;;;;;;9.63;3.65;;;;;;;9.75;64.58;93920.75;2055163;69;20142;-75
2022/10/28 03:50:31;;;;;;;6.90;3.67;;;;;;;9.70;64.51;93924.56;2054399;70;20176;-76
2022/10/28 03:52:59;;;;;;;4.30;2.65;;;;;;;9.64;66.15;93919.94;2058809;69;20160;-75
2022/10/28 03:55:24;;;;;;;10.15;3.00;;;;;;;9.53;67.16;93933.69;2055806;69;20146;-76
2022/10/28 03:57:51;;;;;;;7.90;3.00;;;;;;;9.60;66.42;93930.09;2055200;69;20150;-76
2022/10/28 04:00:17;;;;;;;7.93;3.20;;;;;;;9.60;65.96;93936.44;2054913;69;20179;-76
2022/10/28 04:02:50;;;;;;;9.35;3.28;;;;;;;9.58;66.06;93932.75;2055030;69;20656;-76
2022/10/28 04:05:16;;;;;;;9.70;2.63;;;;;;;9.61;66.09;93937.94;2055008;69;20134;-76
2022/10/28 04:07:41;;;;;;;3.97;1.90;;;;;;;9.68;65.60;93936.41;2054945;69;20146;-76
2022/10/28 04:10:07;;;;;;;12.25;5.40;;;;;;;9.73;64.63;93937.47;2054859;69;20148;-77
2022/10/28 04:12:33;;;;;;;8.85;4.22;;;;;;;9.73;66.14;93929.03;2054969;69;20192;-77
2022/10/28 04:14:58;;;;;;;9.05;3.88;;;;;;;9.76;65.44;93937.06;2054780;69;20161;-76
2022/10/28 04:17:24;;;;;;;7.38;2.50;;;;;;;9.75;65.52;93926.38;2054944;69;20547;-76
2022/10/28 04:19:50;;;;;;;9.88;3.38;;;;;;;9.71;66.21;93920.41;2054922;69;20207;-76
2022/10/28 04:22:15;;;;;;;7.97;2.95;;;;;;;9.70;66.33;93925.31;2054912;69;20179;-77
2022/10/28 04:24:41;;;;;;;7.10;2.83;;;;;;;9.75;65.64;93935.56;2054895;69;20519;-79
2022/10/28 04:27:06;;;;;;;9.32;2.83;;;;;;;9.78;65.19;93931.59;2055014;69;20142;-76
2022/10/28 04:29:32;;;;;;;5.32;2.33;;;;;;;9.76;65.04;93928.63;2054770;69;20153;-77
2022/10/28 04:31:58;;;;;;;6.75;2.10;;;;;;;9.62;66.37;93925.38;2054874;69;20668;-77
2022/10/28 04:34:25;;;;;;;10.85;4.13;;;;;;;9.58;66.90;93930.66;2054971;69;20154;-76
2022/10/28 04:36:50;;;;;;;17.45;5.78;;;;;;;9.63;66.02;93929.69;2054446;70;20181;-77
2022/10/28 04:39:16;;;;;;;13.45;4.55;;;;;;;9.62;66.44;93927.44;2055320;69;20185;-77
2022/10/28 04:41:42;;;;;;;7.38;3.15;;;;;;;9.57;66.20;93925.59;2054760;69;20153;-77
2022/10/28 04:44:07;;;;;;;15.50;5.85;;;;;;;9.38;68.25;93929.69;2055373;69;20225;-78
2022/10/28 04:46:33;;;;;;;14.90;6.63;;;;;;;9.56;66.41;93932.56;2055244;69;20138;-77
2022/10/28 04:48:58;;;;;;;15.05;7.68;;;;;;;9.59;65.93;93937.03;2055416;69;20154;-78
2022/10/28 04:51:24;;;;;;;22.30;8.07;;;;;;;9.55;66.25;93934.63;2055388;69;20177;-76
2022/10/28 04:53:51;;;;;;;18.92;7.07;;;;;;;9.52;65.83;93935.75;2049460;70;20642;-77
2022/10/28 04:56:16;;;;;;;16.73;7.47;;;;;;;9.52;66.20;93921.72;2055353;69;20149;-77
2022/10/28 04:58:42;;;;;;;16.95;6.85;;;;;;;9.51;65.93;93927.91;2055443;69;20644;-77
2022/10/28 05:01:09;;;;;;;16.65;7.35;;;;;;;9.48;66.15;93929.06;2055390;69;20160;-77
2022/10/28 05:03:34;;;;;;;20.25;8.25;;;;;;;9.50;66.21;93924.34;2055294;69;20201;-77
2022/10/28 05:06:01;;;;;;;17.23;7.00;;;;;;;9.49;66.23;93919.31;2055274;69;20565;-77
2022/10/28 05:08:26;;;;;;;18.40;7.65;;;;;;;9.51;65.03;93927.91;2055305;69;20240;-77
2022/10/28 05:10:52;;;;;;;17.33;6.85;;;;;;;9.45;65.89;93930.22;2055265;69;20498;-77
2022/10/28 05:13:17;;;;;;;17.77;7.30;;;;;;;9.45;65.28;93928.16;2055371;69;20585;-78
2022/10/28 05:15:43;;;;;;;19.05;6.80;;;;;;;9.44;66.24;93923.84;2055280;69;20574;-78
2022/10/28 05:18:09;;;;;;;34.60;14.68;;;;;;;9.40;66.90;93929.13;2055302;69;20173;-77
2022/10/28 05:20:35;;;;;;;43.80;20.45;;;;;;;9.34;67.11;93934.97;2055239;69;20236;-78
2022/10/28 05:23:00;;;;;;;33.08;13.18;;;;;;;9.38;65.88;93929.69;2055361;69;20166;-78
2022/10/28 05:25:26;;;;;;;29.38;13.23;;;;;;;9.39;66.28;93928.38;2055297;69;20212;-77
2022/10/28 05:27:52;;;;;;;29.27;15.57;;;;;;;9.34;66.44;93932.16;2055356;69;20181;-76
2022/10/28 05:30:18;;;;;;;27.27;13.95;;;;;;;9.33;66.12;93919.44;2055133;69;20149;-77
2022/10/28 05:32:44;;;;;;;30.98;13.48;;;;;;;9.36;65.77;93921.09;2055314;69;20173;-78
2022/10/28 05:35:10;;;;;;;22.77;10.95;;;;;;;9.27;67.18;93926.59;2057166;69;20157;-78
2022/10/28 05:37:36;;;;;;;23.73;11.25;;;;;;;9.28;66.33;93914.78;2059433;69;20150;-79
2022/10/28 05:40:03;;;;;;;39.92;18.25;;;;;;;9.22;67.78;93924.78;2055453;69;20140;-77
2022/10/28 05:42:28;;;;;;;19.65;8.25;;;;;;;9.31;66.55;93919.28;2055276;69;20371;-77
2022/10/28 05:44:54;;;;;;;23.80;11.30;;;;;;;9.28;67.12;93928.09;2055257;69;20256;-77
2022/10/28 05:47:19;;;;;;;22.77;11.38;;;;;;;9.23;67.58;93924.19;2055363;69;20145;-78
2022/10/28 05:49:45;;;;;;;21.33;10.77;;;;;;;9.26;67.01;93916.69;2055090;69;20265;-78
2022/10/28 05:52:10;;;;;;;36.08;17.70;;;;;;;9.29;66.65;93921.88;2054654;69;20141;-78
2022/10/28 05:54:36;;;;;;;35.42;19.20;;;;;;;9.28;67.18;93922.47;2055245;69;20498;-78
2022/10/28 05:57:02;;;;;;;26.73;13.85;;;;;;;9.36;66.57;93926.72;2055338;69;20175;-78
2022/10/28 05:59:27;;;;;;;21.48;11.35;;;;;;;9.34;65.38;93926.53;2054596;69;20240;-78
2022/10/28 06:01:53;;;;;;;28.30;14.02;;;;;;;9.29;67.73;93933.13;2054547;69;20149;-78
2022/10/28 06:04:18;;;;;;;72.57;33.03;;;;;;;9.18;66.97;93938.47;2055311;69;20308;-76
2022/10/28 06:06:44;;;;;;;40.17;19.77;;;;;;;9.25;67.19;93932.78;2055086;69;20157;-78
2022/10/28 06:09:09;;;;;;;43.05;20.98;;;;;;;9.24;67.50;93936.16;2055263;69;20146;-77
2022/10/28 06:11:36;;;;;;;40.03;21.42;;;;;;;9.31;67.28;93941.75;2055201;69;20157;-77
2022/10/28 06:14:02;;;;;;;42.75;22.02;;;;;;;9.31;66.63;93938.94;2054655;69;20142;-78
2022/10/28 06:16:28;;;;;;;36.95;19.25;;;;;;;9.30;65.95;93950.72;2055037;69;20258;-77
2022/10/28 06:18:55;;;;;;;40.03;19.85;;;;;;;9.33;67.56;93941.16;2055141;69;20594;-77
2022/10/28 06:21:20;;;;;;;34.60;19.33;;;;;;;9.33;66.90;93936.28;2055259;69;20529;-76
2022/10/28 06:23:47;;;;;;;35.25;18.38;;;;;;;9.36;66.71;93951.28;2055184;69;20153;-77
2022/10/28 06:26:14;;;;;;;35.28;17.67;;;;;;;9.39;66.49;93955.72;2054728;69;20232;-77
2022/10/28 06:28:39;;;;;;;31.55;15.75;;;;;;;9.40;66.96;93957.25;2054438;69;20142;-77
2022/10/28 06:31:08;;;;;;;23.95;12.90;;;;;;;9.42;66.81;93954.59;2055142;69;20228;-76
2022/10/28 06:33:34;;;;;;;22.73;12.32;;;;;;;9.44;66.89;93957.59;2055406;69;20598;-76
2022/10/28 06:36:00;;;;;;;23.98;12.23;;;;;;;9.47;66.83;93956.41;2056012;69;20126;-77
2022/10/28 06:38:27;;;;;;;24.63;13.40;;;;;;;9.42;66.46;93960.94;2055952;69;20139;-77
2022/10/28 06:40:53;;;;;;;22.05;12.20;;;;;;;9.38;68.27;93959.88;2055315;69;20150;-77
2022/10/28 06:43:18;;;;;;;24.17;13.50;;;;;;;9.43;67.83;93956.81;2055179;69;20146;-77
2022/10/28 06:45:45;;;;;;;28.00;13.40;;;;;;;9.52;66.80;93963.88;2054436;70;20248;-77
2022/10/28 06:48:11;;;;;;;29.55;12.02;;;;;;;9.60;66.90;93963.81;2055135;69;20163;-77
2022/10/28 06:50:37;;;;;;;27.30;12.05;;;;;;;9.62;67.33;93964.75;2054629;70;20594;-77
2022/10/28 06:53:03;;;;;;;26.05;12.40;;;;;;;9.61;67.33;93962.50;2055316;69;20160;-77
2022/10/28 06:55:29;;;;;;;25.38;12.05;;;;;;;9.65;67.18;93960.78;2054564;70;20256;-77
2022/10/28 06:57:59;;;;;;;25.13;9.70;;;;;;;9.70;66.07;93966.75;2055487;69;20238;-76
2022/10/28 07:00:26;;;;;;;21.33;10.55;;;;;;;9.67;66.85;93972.22;2054855;69;20162;-76
2022/10/28 07:02:53;;;;;;;21.40;10.23;;;;;;;9.74;65.11;93969.91;2055030;69;20199;-77
2022/10/28 07:05:20;;;;;;;22.40;11.32;;;;;;;9.69;66.26;93974.44;2055040;69;20173;-77
2022/10/28 07:07:45;;;;;;;21.23;10.32;;;;;;;9.75;66.21;93980.56;2054965;69;20138;-77
2022/10/28 07:10:11;;;;;;;21.55;9.38;;;;;;;9.79;66.56;93977.34;2054967;69;20152;-77
2022/10/28 07:12:36;;;;;;;25.85;9.93;;;;;;;9.78;67.33;93987.84;2055006;69;20205;-77
2022/10/28 07:15:03;;;;;;;17.92;9.80;;;;;;;9.86;65.09;93982.91;2054952;69;20177;-77
2022/10/28 07:17:28;;;;;;;22.80;10.82;;;;;;;9.81;67.15;93989.53;2055080;69;20173;-76
2022/10/28 07:19:55;;;;;;;20.20;10.30;;;;;;;9.85;66.47;93987.06;2055085;69;20230;-76
2022/10/28 07:22:20;;;;;;;25.77;11.18;;;;;;;9.92;65.84;93980.59;2055100;69;20612;-75
2022/10/28 07:24:46;;;;;;;24.42;11.07;;;;;;;10.01;65.87;93982.03;2055076;69;20583;-76
2022/10/28 07:27:12;;;;;;;25.48;11.65;;;;;;;10.03;66.24;93973.00;2055043;70;20158;-77
2022/10/28 07:29:37;;;;;;;22.15;10.13;;;;;;;9.93;68.84;93970.84;2055001;69;20142;-77
2022/10/28 07:32:03;;;;;;;17.05;8.40;;;;;;;10.06;68.17;93978.22;2054905;69;20232;-78
2022/10/28 07:34:29;;;;;;;20.20;8.55;;;;;;;10.09;68.26;93976.34;2055090;69;20181;-77
2022/10/28 07:36:55;;;;;;;19.30;8.05;;;;;;;10.21;66.12;93979.41;2055074;69;20220;-77
2022/10/28 07:39:20;;;;;;;14.40;7.70;;;;;;;10.17;65.92;93979.81;2055044;69;20142;-77
2022/10/28 07:41:46;;;;;;;14.90;7.75;;;;;;;10.25;64.06;93982.56;2054992;69;20200;-78
2022/10/28 07:44:14;;;;;;;16.73;7.63;;;;;;;10.17;65.89;93971.34;2054988;69;20205;-78
2022/10/28 07:46:40;;;;;;;15.52;7.60;;;;;;;10.31;67.13;93975.41;2054864;69;20174;-77
2022/10/28 07:49:05;;;;;;;22.23;10.60;;;;;;;10.38;66.88;93971.00;2051849;70;20502;-77
2022/10/28 07:51:31;;;;;;;17.25;9.52;;;;;;;10.47;66.02;93961.88;2054927;69;20183;-76
2022/10/28 07:53:57;;;;;;;30.70;15.48;;;;;;;10.39;66.99;93958.41;2055001;69;20184;-77
2022/10/28 07:56:23;;;;;;;26.63;15.90;;;;;;;10.41;67.94;93961.41;2054993;69;20233;-77
2022/10/28 07:58:49;;;;;;;28.13;14.73;;;;;;;10.51;65.61;93972.72;2054962;69;20168;-77
2022/10/28 08:01:17;;;;;;;25.25;13.27;;;;;;;10.63;65.94;93970.91;2054837;69;20150;-77
2022/10/28 08:03:43;;;;;;;25.23;12.80;;;;;;;10.69;65.02;93971.41;2054950;69;20281;-78
2022/10/28 08:06:11;;;;;;;28.70;12.60;;;;;;;10.80;65.85;93970.88;2054909;69;20173;-78
2022/10/28 08:08:38;;;;;;;27.17;12.10;;;;;;;11.07;66.07;93976.53;2054808;69;20320;-77
2022/10/28 08:11:11;;;;;;;16.05;9.23;;;;;;;11.30;67.66;93964.94;2054841;69;20219;-77
2022/10/28 08:13:37;;;;;;;16.65;8.82;;;;;;;11.44;66.89;93966.03;2054842;69;20173;-77
2022/10/28 08:16:03;;;;;;;18.73;9.30;;;;;;;11.84;66.73;93976.19;2054680;69;20141;-78
2022/10/28 08:18:29;;;;;;;20.80;9.70;;;;;;;12.19;68.04;93973.91;2054794;69;20162;-77
2022/10/28 08:20:58;;;;;;;17.23;8.18;;;;;;;12.53;66.21;93971.41;2055421;69;20665;-77
2022/10/28 08:23:26;;;;;;;21.77;8.88;;;;;;;12.83;66.63;93972.88;2054724;70;20594;-77
2022/10/28 08:25:51;;;;;;;35.30;13.32;;;;;;;13.05;65.46;93974.47;2055339;69;20197;-75
2022/10/28 08:28:18;;;;;;;22.42;9.88;;;;;;;13.41;65.20;93967.16;2055344;69;20168;-76
2022/10/28 08:30:45;;;;;;;23.10;10.10;;;;;;;13.72;63.86;93959.44;2055207;69;20138;-77
2022/10/28 08:33:12;;;;;;;22.60;8.35;;;;;;;14.08;63.62;93966.13;2055299;69;20150;-77
2022/10/28 08:35:37;;;;;;;18.65;7.45;;;;;;;14.24;62.30;93957.97;2055278;69;20616;-75
2022/10/28 08:38:03;;;;;;;18.55;6.68;;;;;;;14.51;61.02;93969.00;2055404;69;20150;-77
2022/10/28 08:40:51;;;;;;;18.92;8.05;;;;;;;14.70;58.80;93953.94;2056123;69;20185;-76
2022/10/28 08:43:54;;;;;;;18.35;6.90;;;;;;;14.88;59.37;93948.72;2055722;69;20621;-75
2022/10/28 08:46:20;;;;;;;26.48;9.57;;;;;;;15.18;59.12;93950.69;2055424;69;20142;-75
2022/10/28 08:48:45;;;;;;;26.17;10.85;;;;;;;15.30;58.97;93947.13;2055310;69;20149;-75
2022/10/28 08:51:20;;;;;;;19.15;7.30;;;;;;;15.50;58.30;93934.97;2055416;69;20198;-76
2022/10/28 08:54:04;;;;;;;17.80;6.47;;;;;;;15.59;57.19;93935.47;2054853;70;20618;-77
2022/10/28 08:56:34;;;;;;;16.00;5.30;;;;;;;15.88;57.29;93941.53;2055335;69;20646;-76
2022/10/28 08:59:04;;;;;;;9.95;4.82;;;;;;;16.19;57.15;93940.53;2055334;69;20145;-76
2022/10/28 09:01:44;;;;;;;14.55;4.72;;;;;;;16.24;55.47;93943.00;2057105;69;20701;-75
2022/10/28 09:04:39;;;;;;;10.50;4.65;;;;;;;16.51;56.10;93939.63;2056899;70;20230;-78
2022/10/28 09:07:14;;;;;;;14.80;5.53;;;;;;;16.74;55.42;93946.63;2055206;69;20153;-77
2022/10/28 09:09:39;;;;;;;11.45;4.82;;;;;;;17.06;54.92;93942.06;2055435;69;20134;-77
2022/10/28 09:12:22;;;;;;;14.88;3.80;;;;;;;17.23;54.20;93944.47;2055272;69;20153;-77
2022/10/28 09:15:23;;;;;;;;;;;;;;;17.43;52.58;93942.00;2055343;69;20233;-77
2022/10/28 09:17:52;;;;;;;7.70;2.60;;;;;;;17.81;53.78;93941.88;2051095;70;20073;-77
2022/10/28 09:20:38;;;;;;;10.65;2.25;;;;;;;18.03;50.63;93946.66;2054431;69;20566;-77
2022/10/28 09:23:18;;;;;;;6.65;2.15;;;;;;;18.31;50.25;93945.94;2055161;69;20233;-77
2022/10/28 09:25:56;;;;;;;7.53;2.20;;;;;;;18.73;51.04;93939.56;2054686;69;20244;-77
2022/10/28 09:28:36;;;;;;;7.10;2.08;;;;;;;19.04;49.46;93930.41;2055255;69;20230;-78
2022/10/28 09:31:31;;;;;;;6.75;2.15;;;;;;;19.33;50.22;93928.94;2055115;69;20141;-77
2022/10/28 09:34:05;;;;;;;9.07;2.35;;;;;;;19.84;49.24;93925.63;2055348;69;20142;-78
2022/10/28 09:36:39;;;;;;;7.03;2.58;;;;;;;19.94;46.67;93923.22;2055158;69;20146;-77
2022/10/28 09:39:13;;;;;;;6.05;2.10;;;;;;;20.29;43.88;93925.50;2055310;69;20152;-76
2022/10/28 09:41:47;;;;;;;3.38;1.20;;;;;;;19.44;43.94;93921.59;2055238;69;20157;-77
2022/10/28 09:44:14;;;;;;;5.85;1.55;;;;;;;19.82;43.68;93922.66;2055171;69;20616;-77
2022/10/28 09:46:40;;;;;;;5.35;1.60;;;;;;;20.32;44.79;93917.75;2055075;69;20146;-77
2022/10/28 09:49:15;;;;;;;7.97;1.75;;;;;;;20.71;44.22;93916.56;2055374;69;20644;-77
2022/10/28 09:51:51;;;;;;;7.65;1.58;;;;;;;21.10;44.68;93910.34;2055426;69;20594;-77
2022/10/28 09:54:26;;;;;;;8.70;1.70;;;;;;;21.27;42.68;93917.47;2055051;69;20510;-77
2022/10/28 09:56:52;;;;;;;8.50;2.10;;;;;;;21.73;41.42;93912.88;2055172;69;20188;-78
2022/10/28 09:59:17;;;;;;;10.50;4.13;;;;;;;21.97;40.89;93910.19;2055199;69;20142;-78
2022/10/28 10:01:46;;;;;;;7.97;1.90;;;;;;;21.81;42.01;93913.19;2054984;69;20145;-77
2022/10/28 10:04:18;;;;;;;6.78;1.83;;;;;;;22.19;40.81;93918.19;2055055;69;20188;-77
2022/10/28 10:06:48;;;;;;;5.07;1.75;;;;;;;22.15;40.88;93912.28;2055030;69;20165;-77
2022/10/28 10:09:22;;;;;;;7.00;1.75;;;;;;;21.96;41.39;93919.44;2055187;69;20606;-77
2022/10/28 10:11:51;;;;;;;5.70;1.38;;;;;;;21.96;40.42;93913.72;2054253;69;20690;-77
2022/10/28 10:14:30;;;;;;;8.80;1.88;;;;;;;22.62;38.21;93931.91;2051780;70;20192;-78
2022/10/28 10:17:01;;;;;;;8.27;2.00;;;;;;;23.05;38.99;93907.59;2051711;69;20192;-77
2022/10/28 10:19:27;;;;;;;8.93;2.45;;;;;;;22.82;37.21;93906.78;2051919;70;20142;-77
2022/10/28 10:21:54;;;;;;;5.32;1.73;;;;;;;23.27;38.01;93911.16;2051356;70;20146;-77
2022/10/28 10:24:30;;;;;;;4.25;1.70;;;;;;;23.64;37.16;93911.59;2051871;69;20272;-78
2022/10/28 10:27:01;;;;;;;8.40;2.33;;;;;;;24.26;36.41;93909.19;2051902;69;20146;-78
2022/10/28 10:29:29;;;;;;;9.25;2.40;;;;;;;24.37;33.44;93908.06;2051843;69;20146;-75
2022/10/28 10:32:14;;;;;;;10.77;3.15;;;;;;;24.31;32.82;93899.97;2051691;70;20146;-75
2022/10/28 10:34:55;;;;;;;5.65;1.40;;;;;;;24.79;34.48;93902.03;2052398;70;20170;-78
2022/10/28 10:37:22;;;;;;;9.25;2.10;;;;;;;24.97;32.82;93904.66;2048854;70;20147;-77
2022/10/28 10:40:22;;;;;;;7.00;2.42;;;;;;;25.84;32.29;93895.31;2048678;70;20649;-77
2022/10/28 10:42:48;;;;;;;8.77;2.10;;;;;;;26.93;32.39;93897.50;2053176;70;20735;-77
2022/10/28 10:45:24;;;;;;;7.43;1.95;;;;;;;27.37;32.09;93900.50;2054811;70;20162;-77
2022/10/28 10:48:11;;;;;;;7.55;1.55;;;;;;;27.96;30.43;93886.97;2057096;69;20169;-79
2022/10/28 10:50:37;;;;;;;9.30;1.90;;;;;;;28.81;27.24;93893.13;2052245;70;20591;-79
2022/10/28 10:53:03;;;;;;;6.40;1.60;;;;;;;28.70;28.04;93891.56;2051278;69;20130;-79
2022/10/28 10:55:38;;;;;;;7.80;1.70;;;;;;;27.37;29.40;93886.03;2051239;70;20255;-79
2022/10/28 10:58:09;;;;;;;7.38;1.67;;;;;;;26.16;32.13;93870.72;2051879;69;20176;-79
2022/10/28 11:00:37;;;;;;;11.38;4.65;;;;;;;27.19;32.85;93868.38;2051822;69;20222;-79
2022/10/28 11:03:25;;;;;;;8.43;2.85;;;;;;;28.76;31.72;93871.31;2051224;70;20503;-79
2022/10/28 11:05:56;;;;;;;11.55;2.80;;;;;;;28.17;31.28;93872.75;2051652;69;20205;-79
2022/10/28 11:08:33;;;;;;;4.75;1.80;;;;;;;28.67;29.46;93866.88;2048332;70;20169;-79
2022/10/28 11:11:09;;;;;;;11.88;2.15;;;;;;;29.01;29.50;93863.66;2053180;69;20181;-79
2022/10/28 11:13:35;;;;;;;5.18;1.45;;;;;;;29.87;26.28;93873.06;2055076;69;20145;-79
2022/10/28 11:16:06;;;;;;;5.45;1.70;;;;;;;30.55;27.86;93862.56;2054336;69;20149;-79
2022/10/28 11:18:41;;;;;;;7.17;1.67;;;;;;;31.54;26.55;93862.06;2054586;69;20142;-79
2022/10/28 11:21:13;;;;;;;4.40;1.80;;;;;;;31.32;25.57;93856.25;2055071;69;20348;-79
2022/10/28 11:23:52;;;;;;;4.60;1.33;;;;;;;32.08;25.53;93854.75;2055099;69;20150;-79
2022/10/28 11:26:21;;;;;;;9.40;1.80;;;;;;;32.78;24.41;93846.50;2055071;69;20217;-79
2022/10/28 11:29:07;;;;;;;5.28;1.65;;;;;;;33.27;24.21;93849.16;2054516;70;20161;-78
2022/10/28 11:31:39;;;;;;;6.30;1.92;;;;;;;32.80;24.32;93851.59;2054914;69;20153;-78
2022/10/28 11:34:23;;;;;;;14.88;2.38;;;;;;;31.51;25.49;93831.50;2054496;69;20177;-77
2022/10/28 11:37:30;;;;;;;7.60;1.67;;;;;;;33.91;22.47;93840.63;2055315;69;20153;-77
2022/10/28 11:40:18;;;;;;;6.88;1.80;;;;;;;33.49;21.32;93827.13;2052137;70;20238;-77
2022/10/28 11:43:18;;;;;;;7.20;1.65;;;;;;;33.81;21.31;93831.94;2055238;69;20138;-78
2022/10/28 11:45:46;;;;;;;6.15;1.60;;;;;;;31.80;25.04;93822.78;2054361;70;20144;-78
2022/10/28 11:48:42;;;;;;;8.02;1.77;;;;;;;33.05;23.30;93820.13;2055006;69;20237;-77